Time;durP1;ratioP1;P1;durP2;ratioP2;P2;SDS_P1;SDS_P2;PMS_P1;PMS_P2;Temp;Humidity;BMP_temperature;BMP_pressure;BME280_temperature;BME280_humidity;BME280_pressure;Samples;Min_cycle;Max_cycle;Signal;HPM_P1;HPM_P2
2024/01/09 01:14:52;;;;;;;8.35;2.50;;;;;;;1.43;100.00;102155.13;5499634;23;20106;-94
2024/01/09 01:21:18;;;;;;;;;;;;;;;;;;;;;
2024/01/09 01:32:45;;;;;;;10.73;2.92;;;;;;;1.58;100.00;102146.88;4883680;29;20040;-94
2024/01/09 01:36:55;;;;;;;9.13;2.92;;;;;;;1.59;100.00;102140.75;4870954;29;20123;-94
2024/01/09 01:54:07;;;;;;;8.13;3.03;;;;;;;1.47;100.00;102149.78;4818484;29;20042;-94
2024/01/09 02:20:06;;;;;;;10.52;2.97;;;;;;;1.50;100.00;102148.00;4710976;30;20060;-93
2024/01/09 02:35:13;;;;;;;6.65;1.85;;;;;;;1.51;100.00;102128.84;4761802;30;20043;-94
2024/01/09 02:39:00;;;;;;;5.95;1.20;;;;;;;1.50;100.00;102129.75;4751709;30;20047;-93
2024/01/09 02:55:40;;;;;;;;;;;;;;;;;;;;;
2024/01/09 02:58:53;;;;;;;;;;;;;;;1.57;100.00;102115.63;4687142;30;20045;-94
2024/01/09 03:01:39;;;;;;;4.53;2.10;;;;;;;1.55;100.00;102113.06;4760993;30;19906;-93
2024/01/09 03:08:24;;;;;;;4.63;1.83;;;;;;;1.55;100.00;102102.66;4847141;29;21340;-94
2024/01/09 03:11:25;;;;;;;;;;;;;;;;;;;;;
2024/01/09 03:14:41;;;;;;;11.93;1.50;;;;;;;1.44;100.00;102100.34;4884288;29;20028;-92
2024/01/09 03:17:42;;;;;;;3.45;1.38;;;;;;;1.54;100.00;102120.94;4880009;29;20032;-93
2024/01/09 03:20:36;;;;;;;7.47;1.50;;;;;;;1.55;100.00;102104.38;4882898;29;20055;-92
2024/01/09 03:23:02;;;;;;;7.30;1.20;;;;;;;1.52;100.00;102100.13;4864324;29;20125;-93
2024/01/09 03:25:40;;;;;;;4.97;1.60;;;;;;;1.59;100.00;102098.22;4900273;29;20482;-92
2024/01/09 03:28:11;;;;;;;11.48;1.52;;;;;;;1.61;100.00;102097.25;4857819;29;20048;-93
2024/01/09 03:30:37;;;;;;;5.65;1.25;;;;;;;1.66;100.00;102099.72;4879817;29;20092;-93
2024/01/09 03:33:19;;;;;;;4.88;1.35;;;;;;;1.79;100.00;102099.34;4852034;29;20066;-93
2024/01/09 03:36:10;;;;;;;14.15;1.88;;;;;;;1.76;100.00;102096.84;4865228;29;20041;-93
2024/01/09 03:38:55;;;;;;;3.70;1.70;;;;;;;1.63;100.00;102093.75;4866925;29;20024;-93
2024/01/09 03:41:23;;;;;;;10.18;1.75;;;;;;;1.63;100.00;102097.22;4879853;29;20561;-95
2024/01/09 03:43:49;;;;;;;9.38;1.30;;;;;;;1.64;100.00;102091.09;4878290;29;20036;-94
2024/01/09 03:46:15;;;;;;;5.90;1.15;;;;;;;1.67;100.00;102093.59;4879323;29;20470;-96
2024/01/09 03:48:41;;;;;;;6.00;1.27;;;;;;;1.64;100.00;102092.88;4881279;29;20456;-93
2024/01/09 03:51:07;;;;;;;6.30;1.20;;;;;;;1.68;100.00;102090.13;4890002;29;20120;-93
2024/01/09 03:53:33;;;;;;;5.75;2.42;;;;;;;1.70;100.00;102077.03;4870988;29;20351;-93
2024/01/09 03:56:01;;;;;;;7.50;1.27;;;;;;;1.87;100.00;102094.78;4878707;29;20033;-94
2024/01/09 03:58:30;;;;;;;4.97;1.27;;;;;;;1.85;100.00;102080.91;4880093;29;20045;-94
2024/01/09 04:00:56;;;;;;;4.90;1.10;;;;;;;1.74;100.00;102089.06;4865136;29;20036;-93
2024/01/09 04:03:22;;;;;;;7.32;1.30;;;;;;;1.90;100.00;102086.84;4867798;29;20058;-96
2024/01/09 04:05:48;;;;;;;4.03;1.02;;;;;;;1.88;100.00;102087.81;4866458;29;20036;-94
2024/01/09 04:08:16;;;;;;;6.30;1.70;;;;;;;1.98;100.00;102084.88;4879675;29;20036;-93
2024/01/09 04:10:42;;;;;;;8.48;1.58;;;;;;;1.96;100.00;102085.81;4865813;29;20033;-93
2024/01/09 04:13:08;;;;;;;7.32;1.20;;;;;;;1.94;100.00;102079.81;4870087;29;20456;-93
2024/01/09 04:15:34;;;;;;;6.15;1.80;;;;;;;1.98;100.00;102084.00;4897692;29;20064;-94
2024/01/09 04:18:01;;;;;;;5.80;1.30;;;;;;;1.96;100.00;102075.38;4881841;29;20051;-94
2024/01/09 04:20:27;;;;;;;7.22;1.58;;;;;;;1.96;100.00;102081.44;4879056;29;20048;-95
2024/01/09 04:22:53;;;;;;;15.60;2.38;;;;;;;1.96;100.00;102080.59;4880291;29;20119;-93
2024/01/09 04:25:18;;;;;;;4.47;1.48;;;;;;;1.88;100.00;102085.22;4871912;29;20068;-93
2024/01/09 04:27:44;;;;;;;9.15;1.90;;;;;;;1.90;100.00;102088.59;4864010;29;20032;-94
2024/01/09 04:30:11;;;;;;;6.68;1.30;;;;;;;1.92;100.00;102079.84;4866382;29;20043;-93
2024/01/09 04:32:36;;;;;;;3.47;1.02;;;;;;;1.92;100.00;102086.81;4873070;29;20071;-93
2024/01/09 04:35:03;;;;;;;9.32;1.90;;;;;;;1.92;100.00;102079.84;4876924;29;20383;-93
2024/01/09 04:37:28;;;;;;;3.83;1.00;;;;;;;1.89;100.00;102086.91;4885101;29;20025;-94
2024/01/09 04:39:54;;;;;;;5.95;1.30;;;;;;;1.90;100.00;102086.00;4879419;29;20093;-95
2024/01/09 04:42:20;;;;;;;7.57;1.27;;;;;;;1.90;100.00;102078.16;4884095;29;20032;-95
2024/01/09 04:44:46;;;;;;;9.65;1.70;;;;;;;1.97;100.00;102077.09;4882134;29;20397;-95
2024/01/09 04:47:15;;;;;;;10.75;1.80;;;;;;;1.98;100.00;102071.84;4870145;29;20036;-94
2024/01/09 04:49:43;;;;;;;12.93;1.38;;;;;;;1.96;100.00;102071.03;4866572;29;20111;-96
2024/01/09 04:52:08;;;;;;;9.77;1.85;;;;;;;1.95;100.00;102073.69;4870660;29;20033;-96
2024/01/09 04:54:34;;;;;;;3.45;1.65;;;;;;;1.83;100.00;102064.50;4872738;29;20046;-94
2024/01/09 04:57:00;;;;;;;2.03;0.82;;;;;;;1.85;100.00;102067.88;4875625;29;20110;-93
2024/01/09 04:59:26;;;;;;;6.85;1.55;;;;;;;1.82;100.00;102074.06;4869816;29;20044;-95
2024/01/09 05:01:51;;;;;;;10.25;2.85;;;;;;;1.96;100.00;102073.63;4863268;29;20097;-94
2024/01/09 05:04:17;;;;;;;8.45;1.33;;;;;;;2.01;100.00;102085.69;4868356;29;20045;-94
2024/01/09 05:06:43;;;;;;;9.05;1.83;;;;;;;2.06;100.00;102079.41;4872424;29;20025;-93
2024/01/09 05:09:09;;;;;;;11.15;2.22;;;;;;;2.16;100.00;102079.13;4868588;29;20338;-94
2024/01/09 05:11:35;;;;;;;7.25;1.88;;;;;;;2.12;100.00;102080.13;4853552;29;20029;-93
2024/01/09 05:14:01;;;;;;;10.60;1.55;;;;;;;2.11;100.00;102079.28;4883958;29;20067;-94
2024/01/09 05:16:27;;;;;;;3.53;1.17;;;;;;;2.12;100.00;102070.53;4883959;29;20036;-93
2024/01/09 05:18:53;;;;;;;7.65;1.55;;;;;;;2.13;100.00;102072.25;4881399;29;20040;-94
2024/01/09 05:21:19;;;;;;;5.30;1.38;;;;;;;2.04;100.00;102077.78;4869394;29;20053;-94
2024/01/09 05:23:45;;;;;;;11.65;2.03;;;;;;;2.08;100.00;102082.84;4859102;29;20104;-93
2024/01/09 05:26:11;;;;;;;8.30;1.40;;;;;;;2.08;100.00;102088.06;4866432;29;20025;-93
2024/01/09 05:28:37;;;;;;;9.02;1.80;;;;;;;2.07;100.00;102090.72;4870724;29;20037;-93
2024/01/09 05:31:03;;;;;;;6.05;1.63;;;;;;;2.07;100.00;102088.09;4839445;29;20119;-94
2024/01/09 05:33:29;;;;;;;8.52;1.52;;;;;;;2.06;100.00;102089.84;4846667;29;20062;-93
2024/01/09 05:35:55;;;;;;;7.95;2.08;;;;;;;1.94;100.00;102078.03;4860087;29;20113;-95
2024/01/09 05:38:21;;;;;;;4.72;1.17;;;;;;;1.86;100.00;102083.47;4848856;29;20037;-94
2024/01/09 05:40:47;;;;;;;5.10;1.20;;;;;;;1.83;100.00;102088.78;4861571;29;20293;-94
2024/01/09 05:43:13;;;;;;;7.60;1.55;;;;;;;1.71;100.00;102086.56;4863851;29;20044;-95
2024/01/09 05:45:38;;;;;;;1.63;0.88;;;;;;;1.68;100.00;102084.91;4863009;29;20427;-95
2024/01/09 05:48:05;;;;;;;3.85;1.25;;;;;;;1.61;100.00;102091.19;4834844;29;20474;-93
2024/01/09 05:50:30;;;;;;;7.35;1.23;;;;;;;1.68;100.00;102084.03;4880677;29;20061;-94
2024/01/09 05:52:59;;;;;;;5.13;1.52;;;;;;;1.68;100.00;102089.25;4851711;29;20132;-94
2024/01/09 05:55:24;;;;;;;7.32;1.88;;;;;;;1.60;100.00;102092.09;4854942;29;20045;-94
2024/01/09 05:57:50;;;;;;;2.22;0.80;;;;;;;1.63;100.00;102084.19;4843317;29;20035;-96
2024/01/09 06:00:16;;;;;;;3.08;0.95;;;;;;;1.61;100.00;102084.22;4865297;29;20037;-96
2024/01/09 06:02:44;;;;;;;5.63;1.50;;;;;;;1.60;100.00;102081.66;4850214;29;20478;-96
2024/01/09 06:05:10;;;;;;;3.55;1.38;;;;;;;1.62;100.00;102079.88;4849053;29;20553;-96
2024/01/09 06:07:36;;;;;;;9.90;1.38;;;;;;;1.65;100.00;102081.53;4849037;29;20025;-94
2024/01/09 06:10:03;;;;;;;4.78;1.20;;;;;;;1.64;100.00;102085.88;4864032;29;20033;-96
2024/01/09 06:12:29;;;;;;;7.50;1.77;;;;;;;1.61;100.00;102078.16;4870320;29;20052;-93
2024/01/09 06:14:55;;;;;;;4.97;0.88;;;;;;;1.64;100.00;102079.81;4861382;29;20064;-94
2024/01/09 06:17:21;;;;;;;0.35;0.32;;;;;;;1.56;100.00;102082.66;4865499;29;20469;-95
2024/01/09 06:19:47;;;;;;;2.75;1.15;;;;;;;1.59;100.00;102082.56;4865583;29;20037;-94
2024/01/09 06:22:13;;;;;;;11.85;0.98;;;;;;;1.55;100.00;102078.31;4864307;29;20056;-94
2024/01/09 06:24:39;;;;;;;20.35;2.42;;;;;;;1.64;100.00;102085.03;4863957;29;20037;-94
2024/01/09 06:27:05;;;;;;;12.57;2.42;;;;;;;1.66;100.00;102076.25;4873391;29;20033;-94
2024/01/09 06:29:31;;;;;;;5.97;2.00;;;;;;;1.65;100.00;102073.69;4886898;23;20544;-96
2024/01/09 06:36:35;;;;;;;9.20;1.40;;;;;;;1.76;100.00;102076.84;4873668;29;20114;-96
2024/01/09 06:43:49;;;;;;;5.40;1.00;;;;;;;1.66;100.00;102088.44;4896698;29;20090;-96
2024/01/09 06:51:56;;;;;;;;;;;;;;;;;;;;;
2024/01/09 06:55:44;;;;;;;5.28;1.23;;;;;;;1.96;100.00;102104.06;4839735;29;20053;-96
2024/01/09 07:03:27;;;;;;;4.50;1.30;;;;;;;1.96;100.00;102109.28;4840444;29;20045;-96
2024/01/09 07:06:41;;;;;;;;;;;;;;;;;;;;;
2024/01/09 07:14:11;;;;;;;;;;;;;;;;;;;;;
2024/01/09 07:34:05;;;;;;;9.88;1.50;;;;;;;1.81;100.00;102131.47;4896930;29;20155;-96
2024/01/09 07:41:05;;;;;;;;;;;;;;;1.72;100.00;102133.44;4900749;29;20099;-96
2024/01/09 07:44:39;;;;;;;6.63;1.08;;;;;;;1.58;100.00;102127.75;4885258;29;19922;-96
2024/01/09 07:48:04;;;;;;;6.28;1.50;;;;;;;1.60;100.00;102125.97;4855585;29;20097;-96
2024/01/09 07:55:20;;;;;;;;;;;;;;;;;;;;;
2024/01/09 07:59:00;;;;;;;11.60;1.88;;;;;;;1.57;100.00;102136.50;4832545;29;20540;-96
2024/01/09 08:02:50;;;;;;;;;;;;;;;;;;;;;
2024/01/09 08:06:14;;;;;;;6.57;1.30;;;;;;;1.57;100.00;102142.56;4819930;29;20121;-96
2024/01/09 08:09:45;;;;;;;10.98;1.52;;;;;;;1.59;100.00;102142.53;4811212;29;20067;-96
2024/01/09 08:12:39;;;;;;;6.35;1.42;;;;;;;1.41;100.00;102142.13;4779247;29;20130;-96
2024/01/09 08:16:27;;;;;;;6.85;1.55;;;;;;;1.49;100.00;102136.69;4822259;29;20122;-95
2024/01/09 08:20:19;;;;;;;7.82;1.75;;;;;;;1.50;100.00;102140.19;4796789;29;20126;-95
2024/01/09 08:27:28;;;;;;;4.68;2.15;;;;;;;1.64;100.00;102145.00;4730520;30;20043;-96
2024/01/09 08:34:02;;;;;;;7.65;1.38;;;;;;;1.73;100.00;102144.72;4763545;29;20060;-96
2024/01/09 08:37:24;;;;;;;6.63;0.98;;;;;;;1.82;100.00;102160.09;4853989;29;20590;-96
2024/01/09 08:47:46;;;;;;;10.73;1.88;;;;;;;1.93;100.00;102153.69;4844823;29;20049;-96
2024/01/09 08:51:31;;;;;;;7.35;1.45;;;;;;;2.05;100.00;102162.94;4862023;29;20045;-96
2024/01/09 08:59:14;;;;;;;5.53;2.13;;;;;;;2.13;100.00;102160.97;4836142;29;20077;-96
2024/01/09 09:02:38;;;;;;;15.65;2.33;;;;;;;2.10;100.00;102168.88;4771207;30;20052;-95
2024/01/09 09:05:50;;;;;;;14.93;3.65;;;;;;;2.05;100.00;102171.63;4796792;29;20488;-96
2024/01/09 09:16:36;;;;;;;17.45;2.38;;;;;;;1.78;100.00;102175.88;4799917;29;20061;-96
2024/01/09 09:43:32;;;;;;;10.95;2.80;;;;;;;1.45;100.00;102190.66;4812081;29;20046;-96
2024/01/09 09:47:25;;;;;;;;;;;;;;;;;;;;;
2024/01/09 09:59:00;;;;;;;10.00;2.10;;;;;;;1.94;100.00;102203.22;4918967;23;20055;-96
2024/01/09 10:01:28;;;;;;;11.80;3.08;;;;;;;2.07;100.00;102206.31;4896839;28;20142;-96
2024/01/09 10:08:06;;;;;;;11.73;3.65;;;;;;;2.16;100.00;102206.97;4936557;29;20535;-96
2024/01/09 10:10:36;;;;;;;14.75;3.78;;;;;;;2.25;100.00;102213.63;4929903;29;20036;-96
2024/01/09 10:13:03;;;;;;;12.48;4.18;;;;;;;2.26;100.00;102208.41;4931361;28;20050;-96
2024/01/09 10:15:37;;;;;;;13.70;4.03;;;;;;;2.38;100.00;102219.34;4918624;29;20070;-96
2024/01/09 10:18:04;;;;;;;10.90;2.67;;;;;;;2.45;100.00;102216.50;4951034;28;20065;-96
2024/01/09 10:20:36;;;;;;;9.38;2.60;;;;;;;2.53;100.00;102223.25;4941416;29;20031;-96
2024/01/09 10:23:10;;;;;;;6.65;1.83;;;;;;;2.69;100.00;102223.66;4915558;29;20055;-96
2024/01/09 10:25:47;;;;;;;12.50;2.05;;;;;;;2.71;100.00;102216.59;4919141;29;20035;-96
2024/01/09 10:28:20;;;;;;;12.02;2.40;;;;;;;2.80;100.00;102218.06;4944658;29;20036;-96
2024/01/09 10:30:47;;;;;;;12.38;2.00;;;;;;;2.88;100.00;102220.44;4924042;28;20035;-96
2024/01/09 10:33:17;;;;;;;12.38;2.03;;;;;;;2.95;100.00;102212.34;4932995;29;20063;-96
2024/01/09 10:35:46;;;;;;;9.20;1.60;;;;;;;3.00;100.00;102201.75;4913907;29;20040;-96
2024/01/09 10:38:24;;;;;;;10.77;2.05;;;;;;;3.07;100.00;102205.84;4920660;29;20059;-96
2024/01/09 10:41:16;;;;;;;7.72;2.10;;;;;;;2.95;100.00;102208.88;4929366;28;20086;-96
2024/01/09 10:43:44;;;;;;;7.07;1.80;;;;;;;3.00;100.00;102206.97;4918061;28;20039;-96
2024/01/09 10:46:11;;;;;;;11.07;2.03;;;;;;;2.94;100.00;102208.03;4935186;29;20040;-96
2024/01/09 10:48:41;;;;;;;8.88;2.10;;;;;;;3.03;100.00;102219.94;4926433;29;20054;-96
2024/01/09 10:51:18;;;;;;;12.85;1.77;;;;;;;3.00;100.00;102232.22;4911646;29;20067;-96
2024/01/09 10:53:48;;;;;;;14.02;2.90;;;;;;;3.01;100.00;102226.94;4928030;29;20034;-96
2024/01/09 10:56:21;;;;;;;12.13;2.03;;;;;;;3.06;100.00;102219.81;4913684;29;20028;-96
2024/01/09 10:58:58;;;;;;;7.45;1.80;;;;;;;3.02;100.00;102217.38;4913098;29;20107;-92
2024/01/09 11:01:29;;;;;;;;;;;;;;;2.98;100.00;102214.84;4910578;29;20125;-94
2024/01/09 11:03:55;;;;;;;13.98;2.38;;;;;;;2.97;100.00;102207.06;4920417;29;20450;-96
2024/01/09 11:06:25;;;;;;;6.80;1.73;;;;;;;2.97;100.00;102205.31;4938371;29;20039;-96
2024/01/09 11:09:04;;;;;;;5.00;1.10;;;;;;;2.96;100.00;102200.97;4941544;28;20123;-95
2024/01/09 11:11:36;;;;;;;10.82;2.85;;;;;;;2.91;100.00;102215.09;4905853;29;20047;-96
2024/01/09 11:14:11;;;;;;;14.20;2.22;;;;;;;2.85;100.00;102208.34;4926190;29;20039;-96
2024/01/09 11:16:43;;;;;;;11.45;1.65;;;;;;;2.99;100.00;102210.50;4944456;28;20947;-96
2024/01/09 11:19:13;;;;;;;15.27;2.13;;;;;;;2.96;100.00;102210.59;4927823;29;20043;-96
2024/01/09 11:21:40;;;;;;;9.85;1.67;;;;;;;2.96;100.00;102211.44;4942197;29;20047;-95
2024/01/09 11:24:09;;;;;;;5.18;1.45;;;;;;;3.03;100.00;102209.47;4905489;29;20097;-95
2024/01/09 11:26:42;;;;;;;10.77;1.60;;;;;;;3.13;100.00;102198.72;4925458;29;20068;-94
2024/01/09 11:29:13;;;;;;;9.05;1.48;;;;;;;3.00;100.00;102203.50;4903428;29;20062;-95
2024/01/09 11:31:40;;;;;;;16.00;2.40;;;;;;;3.05;100.00;102205.06;4942331;29;20077;-96
2024/01/09 11:34:09;;;;;;;15.35;3.30;;;;;;;2.96;100.00;102200.97;4908096;29;20054;-96
2024/01/09 11:36:37;;;;;;;6.28;1.70;;;;;;;2.93;100.00;102206.31;4914740;29;20484;-96
2024/01/09 11:39:07;;;;;;;7.22;1.52;;;;;;;3.04;100.00;102203.34;4911418;28;20045;-95
2024/01/09 11:41:39;;;;;;;6.90;0.98;;;;;;;2.88;100.00;102194.31;4924634;29;20511;-96
2024/01/09 11:44:10;;;;;;;5.57;1.30;;;;;;;2.80;100.00;102203.22;4906939;29;20058;-95
2024/01/09 11:47:28;;;;;;;9.48;1.80;;;;;;;2.80;100.00;102198.00;4921469;29;20039;-96
2024/01/09 11:49:58;;;;;;;2.25;0.82;;;;;;;2.70;100.00;102194.88;4944220;29;20027;-96
2024/01/09 11:52:27;;;;;;;9.07;1.40;;;;;;;2.60;100.00;102199.53;4908905;29;20086;-93
2024/01/09 11:54:54;;;;;;;9.38;1.30;;;;;;;2.78;100.00;102207.69;4916373;28;20043;-95
2024/01/09 11:57:23;;;;;;;5.07;1.35;;;;;;;2.62;100.00;102194.25;4908771;29;20039;-96
2024/01/09 11:59:53;;;;;;;3.75;0.80;;;;;;;2.63;100.00;102193.34;4906236;29;20035;-96
2024/01/09 12:02:19;;;;;;;9.70;1.52;;;;;;;2.66;100.00;102193.25;4908968;29;20465;-96
2024/01/09 12:04:50;;;;;;;6.50;1.23;;;;;;;2.75;100.00;102191.25;4910735;29;20616;-96
2024/01/09 12:07:21;;;;;;;7.40;1.27;;;;;;;2.74;100.00;102193.00;4927775;29;20036;-95
2024/01/09 12:09:58;;;;;;;20.15;4.80;;;;;;;2.80;100.00;102194.56;4921048;29;20195;-96
2024/01/09 12:12:35;;;;;;;5.70;1.30;;;;;;;2.82;100.00;102183.16;4920337;29;20043;-96
2024/01/09 12:15:32;;;;;;;13.15;1.77;;;;;;;2.81;100.00;102185.81;4918053;29;20067;-96
2024/01/09 12:19:08;;;;;;;7.88;1.30;;;;;;;2.87;100.00;102184.78;4935233;29;20052;-96
2024/01/09 12:21:56;;;;;;;8.82;2.28;;;;;;;2.89;100.00;102193.41;4938263;29;20098;-96
2024/01/09 12:24:58;;;;;;;8.75;1.42;;;;;;;2.79;100.00;102183.25;4931484;29;20094;-96
2024/01/09 12:31:30;;;;;;;9.50;2.00;;;;;;;2.94;100.00;102178.44;4953519;28;20051;-95
2024/01/09 12:33:57;;;;;;;6.60;1.70;;;;;;;2.87;100.00;102182.16;4912327;28;20150;-96
2024/01/09 12:36:51;;;;;;;7.55;1.58;;;;;;;3.01;100.00;102179.94;4936356;29;20038;-96
2024/01/09 12:40:33;;;;;;;15.45;1.75;;;;;;;3.15;100.00;102161.19;4941491;29;20496;-96
2024/01/09 12:43:16;;;;;;;13.20;1.55;;;;;;;3.31;100.00;102168.50;4908279;28;20055;-96
2024/01/09 12:45:49;;;;;;;6.57;1.52;;;;;;;3.19;100.00;102162.78;4910421;29;20039;-96
2024/01/09 12:48:32;;;;;;;6.35;1.45;;;;;;;3.18;100.00;102148.03;4932410;28;20102;-96
2024/01/09 13:02:28;;;;;;;12.20;1.42;;;;;;;3.59;100.00;102149.19;4967247;28;20074;-96
2024/01/09 13:05:25;;;;;;;10.90;1.58;;;;;;;3.50;100.00;102145.16;4929365;29;20047;-96
2024/01/09 13:07:58;;;;;;;14.23;1.67;;;;;;;3.62;100.00;102148.22;4899714;29;20127;-96
2024/01/09 13:10:49;;;;;;;4.90;1.55;;;;;;;3.59;100.00;102150.06;4903545;29;20043;-95
2024/01/09 13:13:15;;;;;;;6.97;1.38;;;;;;;3.70;100.00;102149.66;4917741;29;20044;-96
2024/01/09 13:20:39;;;;;;;8.55;1.55;;;;;;;3.45;100.00;102139.25;4880015;29;20082;-96
2024/01/09 13:27:55;;;;;;;12.20;1.40;;;;;;;3.43;100.00;102146.28;4940611;29;20051;-96
2024/01/09 13:30:54;;;;;;;8.57;1.38;;;;;;;3.44;100.00;102138.38;4911573;29;20082;-96
2024/01/09 13:33:47;;;;;;;;;;;;;;;;;;;;;
2024/01/09 13:44:53;;;;;;;7.10;1.45;;;;;;;3.65;100.00;102130.66;4971383;28;20030;-96
2024/01/09 13:47:28;;;;;;;10.48;1.80;;;;;;;3.53;100.00;102121.53;4939896;28;20043;-96
2024/01/09 13:50:07;;;;;;;4.30;1.20;;;;;;;3.49;100.00;102124.31;4925362;28;20051;-96
2024/01/09 13:52:46;;;;;;;9.27;1.63;;;;;;;3.53;100.00;102125.88;4940821;29;20039;-96
2024/01/09 13:59:39;;;;;;;4.78;1.13;;;;;;;3.40;100.00;102130.72;4945120;29;20074;-96
2024/01/09 14:02:11;;;;;;;6.57;1.52;;;;;;;3.45;100.00;102123.56;4933911;29;20094;-96
2024/01/09 14:08:09;;;;;;;6.13;1.50;;;;;;;3.55;100.00;102124.09;4966470;23;20166;-94
2024/01/09 14:10:34;;;;;;;7.03;1.30;;;;;;;3.50;100.00;102133.84;4930387;28;20535;-94
2024/01/09 14:13:01;;;;;;;2.13;0.93;;;;;;;3.29;100.00;102131.97;4922405;23;20108;-95
2024/01/09 14:15:27;;;;;;;3.38;1.25;;;;;;;3.32;100.00;102133.59;4882362;29;20122;-96
2024/01/09 14:17:53;;;;;;;4.38;1.30;;;;;;;3.32;100.00;102131.84;4885664;29;20191;-94
2024/01/09 14:20:19;;;;;;;3.33;1.00;;;;;;;3.23;100.00;102135.63;4886024;29;20032;-96
2024/01/09 14:22:44;;;;;;;6.93;1.48;;;;;;;3.10;100.00;102142.19;4871229;29;20024;-96
2024/01/09 14:25:10;;;;;;;9.20;0.85;;;;;;;3.10;100.00;102145.69;4882920;29;20040;-96
2024/01/09 14:27:36;;;;;;;3.55;0.63;;;;;;;3.16;100.00;102144.59;4878982;29;20040;-95
2024/01/09 14:30:02;;;;;;;8.18;1.35;;;;;;;3.32;100.00;102134.47;4882841;29;20149;-95
2024/01/09 14:32:31;;;;;;;2.75;0.60;;;;;;;3.33;100.00;102136.16;4892841;29;20036;-96
2024/01/09 14:34:57;;;;;;;7.20;1.30;;;;;;;3.23;100.00;102132.19;4883302;29;20048;-96
2024/01/09 14:37:23;;;;;;;2.72;1.17;;;;;;;3.27;100.00;102125.06;4882053;29;20040;-94
2024/01/09 14:39:51;;;;;;;6.07;2.05;;;;;;;3.45;100.00;102136.63;4883976;29;20028;-96
2024/01/09 14:42:17;;;;;;;9.35;1.33;;;;;;;3.47;100.00;102129.59;4897949;29;20469;-94
2024/01/09 14:44:44;;;;;;;0.70;0.43;;;;;;;3.25;100.00;102130.34;4902183;29;20032;-96
2024/01/09 14:47:10;;;;;;;0.68;0.32;;;;;;;3.35;100.00;102125.66;4871997;29;20036;-96
2024/01/09 14:49:40;;;;;;;5.07;1.58;;;;;;;3.37;100.00;102136.91;4884349;29;20043;-96
2024/01/09 14:52:05;;;;;;;7.95;1.70;;;;;;;3.33;100.00;102130.06;4900459;29;20040;-95
2024/01/09 14:54:31;;;;;;;7.57;1.58;;;;;;;3.22;100.00;102135.69;4883922;29;20109;-96
2024/01/09 14:56:58;;;;;;;4.85;1.17;;;;;;;3.05;100.00;102131.03;4915748;29;20036;-95
2024/01/09 14:59:24;;;;;;;5.35;0.90;;;;;;;3.07;100.00;102126.63;4906371;29;20044;-96
2024/01/09 15:01:53;;;;;;;9.68;2.05;;;;;;;3.21;100.00;102133.97;4906275;29;20036;-96
2024/01/09 15:04:19;;;;;;;1.98;1.02;;;;;;;3.07;100.00;102140.53;4877633;29;20040;-95
2024/01/09 15:06:45;;;;;;;5.28;1.30;;;;;;;3.12;100.00;102127.34;4894956;29;20043;-96
2024/01/09 15:09:45;;;;;;;4.70;0.80;;;;;;;3.03;100.00;102132.84;4902401;29;20040;-94
2024/01/09 15:13:03;;;;;;;7.15;1.70;;;;;;;3.12;100.00;102137.78;4885431;29;20043;-94
2024/01/09 15:20:09;;;;;;;9.95;1.33;;;;;;;3.06;100.00;102148.41;4900846;29;20114;-95
2024/01/09 15:23:41;;;;;;;7.40;1.33;;;;;;;2.92;100.00;102146.28;4862784;29;20037;-93
2024/01/09 15:27:07;;;;;;;5.30;1.38;;;;;;;2.92;100.00;102141.91;4871751;29;20036;-94
2024/01/09 15:47:24;;;;;;;8.32;1.48;;;;;;;2.92;100.00;102146.28;4837404;29;20061;-94
2024/01/09 16:25:00;;;;;;;;;;;;;;;;;;;;;
2024/01/09 16:29:37;;;;;;;;;;;;;;;;;;;;;
2024/01/09 16:37:59;;;;;;;;;;;;;;;;;;;;;
2024/01/09 17:01:34;;;;;;;4.25;1.27;;;;;;;1.95;100.00;102158.00;4765818;30;20165;-94
2024/01/09 17:09:24;;;;;;;12.40;2.08;;;;;;;1.91;100.00;102163.34;4914089;29;20066;-96
2024/01/09 17:12:12;;;;;;;8.63;2.08;;;;;;;1.86;100.00;102158.28;4883796;29;20046;-96
2024/01/09 17:15:10;;;;;;;16.98;2.70;;;;;;;1.82;100.00;102161.84;4928127;29;20054;-96
2024/01/09 17:17:56;;;;;;;6.63;2.47;;;;;;;1.81;100.00;102166.22;4907820;28;20035;-95
2024/01/09 17:20:47;;;;;;;14.10;2.58;;;;;;;1.73;100.00;102169.06;4919258;28;20081;-95
2024/01/09 17:23:43;;;;;;;11.85;2.50;;;;;;;1.73;100.00;102173.41;4933558;29;20047;-94
2024/01/09 17:26:21;;;;;;;12.13;2.95;;;;;;;1.70;100.00;102174.34;4904312;28;20043;-95
2024/01/09 17:28:55;;;;;;;6.22;1.63;;;;;;;1.66;100.00;102166.63;4912928;28;20830;-95
2024/01/09 17:32:09;;;;;;;11.43;2.38;;;;;;;1.68;100.00;102170.06;4914463;29;20458;-95
2024/01/09 17:34:50;;;;;;;11.88;3.33;;;;;;;1.66;100.00;102172.72;4905672;29;20035;-95
2024/01/09 17:37:57;;;;;;;18.13;4.40;;;;;;;1.60;100.00;102165.06;4928630;29;20053;-95
2024/01/09 17:41:19;;;;;;;17.13;4.28;;;;;;;1.55;100.00;102167.81;4907303;29;20051;-95
2024/01/09 17:44:36;;;;;;;;;;;;;;;;;;;;;
2024/01/09 17:48:19;;;;;;;9.52;3.13;;;;;;;1.43;100.00;102169.00;4908994;29;20510;-95
2024/01/09 18:16:27;;;;;;;12.32;3.95;;;;;;;1.18;100.00;102206.09;5003488;23;20512;-96
2024/01/09 20:08:58;;;;;;;29.40;10.52;;;;;;;0.67;100.00;102220.38;4917245;29;20051;-94
2024/01/09 20:11:43;;;;;;;15.02;6.57;;;;;;;0.74;100.00;102230.63;4918041;29;20040;-94
2024/01/09 20:14:20;;;;;;;16.85;5.00;;;;;;;0.77;100.00;102231.41;4892137;29;20031;-94
2024/01/09 20:17:37;;;;;;;;;;;;;;;;;;;;;
2024/01/09 20:20:33;;;;;;;21.40;5.93;;;;;;;0.53;100.00;102216.34;4910352;29;20036;-94
2024/01/09 20:23:10;;;;;;;17.83;5.63;;;;;;;0.55;100.00;102219.75;4880469;29;20075;-94
2024/01/09 20:25:39;;;;;;;18.88;6.38;;;;;;;0.49;100.00;102219.91;4894561;29;20057;-94
2024/01/09 20:28:08;;;;;;;19.80;5.65;;;;;;;0.55;100.00;102221.50;4907375;29;20054;-94
2024/01/09 20:31:17;;;;;;;;;;;;;;;;;;;;;
2024/01/09 20:33:54;;;;;;;16.83;5.35;;;;;;;0.49;100.00;102206.91;4908779;29;20043;-95
2024/01/09 20:36:31;;;;;;;14.82;5.53;;;;;;;0.47;100.00;102212.13;4889194;29;20717;-94
2024/01/09 20:39:08;;;;;;;30.67;7.80;;;;;;;0.46;100.00;102213.00;4930747;29;20059;-94
2024/01/09 20:42:01;;;;;;;27.98;6.15;;;;;;;0.41;100.00;102207.06;4912043;29;20039;-94
2024/01/09 20:44:31;;;;;;;26.02;6.43;;;;;;;0.45;100.00;102226.06;4899188;29;20043;-94
2024/01/09 20:47:02;;;;;;;19.83;5.93;;;;;;;0.36;100.00;102224.53;4921877;29;20020;-95
2024/01/09 20:49:28;;;;;;;20.75;7.50;;;;;;;0.39;100.00;102228.78;4907611;29;20027;-94
2024/01/09 20:51:57;;;;;;;19.52;7.72;;;;;;;0.38;100.00;102220.16;4899372;29;20036;-94
2024/01/09 20:54:26;;;;;;;19.05;6.15;;;;;;;0.39;100.00;102218.38;4903622;29;20023;-95
2024/01/09 20:56:52;;;;;;;13.77;5.88;;;;;;;0.46;100.00;102223.41;4894075;29;20465;-93
2024/01/09 20:59:19;;;;;;;17.27;5.15;;;;;;;0.44;100.00;102230.41;4910043;29;20104;-94
2024/01/09 21:01:44;;;;;;;16.67;6.55;;;;;;;0.48;100.00;102225.97;4899976;29;20106;-94
2024/01/09 21:04:13;;;;;;;17.77;6.38;;;;;;;0.47;100.00;102227.75;4930030;29;20040;-95
2024/01/09 21:06:45;;;;;;;18.48;7.13;;;;;;;0.48;100.00;102231.19;4902260;29;20036;-94
2024/01/09 21:09:11;;;;;;;13.40;5.78;;;;;;;0.45;100.00;102234.72;4905859;29;20036;-94
2024/01/09 21:11:42;;;;;;;16.08;5.50;;;;;;;0.39;100.00;102220.97;4893445;29;20166;-94
2024/01/09 21:14:08;;;;;;;18.05;6.18;;;;;;;0.30;100.00;102225.53;4898029;29;20098;-94
2024/01/09 21:16:33;;;;;;;15.98;5.47;;;;;;;0.21;100.00;102220.50;4919252;29;20035;-94
2024/01/09 21:18:59;;;;;;;21.95;7.43;;;;;;;0.20;100.00;102230.06;4909846;29;20745;-93
2024/01/09 21:21:28;;;;;;;16.83;6.20;;;;;;;0.23;100.00;102230.00;4905600;29;20059;-94
2024/01/09 21:23:56;;;;;;;23.45;7.07;;;;;;;0.21;100.00;102226.56;4887775;29;20122;-94
2024/01/09 21:26:22;;;;;;;18.95;7.28;;;;;;;0.22;100.00;102228.25;4907891;29;20488;-94
2024/01/09 21:28:48;;;;;;;23.92;5.78;;;;;;;0.29;100.00;102233.34;4889922;29;20046;-95
2024/01/09 21:31:14;;;;;;;19.85;6.22;;;;;;;0.33;100.00;102228.06;4903048;29;20050;-95
2024/01/09 21:34:00;;;;;;;14.77;5.53;;;;;;;0.38;100.00;102212.34;4882848;29;20380;-94
2024/01/09 21:36:39;;;;;;;14.13;4.55;;;;;;;0.42;100.00;102226.97;4890401;29;20032;-95
2024/01/09 21:39:55;;;;;;;19.80;6.30;;;;;;;0.26;100.00;102218.66;4896955;29;20038;-95